createdAt,value
2022-07-29T00:02:17.214Z,3.40
2022-07-29T00:04:49.418Z,3.50
2022-07-29T00:07:22.563Z,3.50
2022-07-29T00:09:54.845Z,3.20
2022-07-29T00:12:28.485Z,3.00
2022-07-29T00:15:02.025Z,3.20
2022-07-29T00:17:35.096Z,3.00
2022-07-29T00:20:09.518Z,2.90
2022-07-29T00:22:45.205Z,2.80
2022-07-29T00:25:17.603Z,4.10
2022-07-29T00:27:49.751Z,3.30
2022-07-29T00:30:23.282Z,3.80
2022-07-29T00:32:55.418Z,3.20
2022-07-29T00:35:46.040Z,3.70
2022-07-29T00:40:50.300Z,3.60
2022-07-29T00:43:22.654Z,3.20
2022-07-29T00:45:55.067Z,3.20
2022-07-29T00:48:27.661Z,3.60
2022-07-29T00:51:02.095Z,3.40
2022-07-29T00:53:36.305Z,3.10
2022-07-29T00:56:09.185Z,2.90
2022-07-29T00:58:42.607Z,3.40
2022-07-29T01:01:14.864Z,3.30
2022-07-29T01:03:47.803Z,3.20
2022-07-29T01:06:21.247Z,3.50
2022-07-29T01:08:53.780Z,3.40
2022-07-29T01:11:26.276Z,3.20
2022-07-29T01:13:59.191Z,3.20
2022-07-29T01:16:39.802Z,3.50
2022-07-29T01:19:24.926Z,3.30
2022-07-29T01:22:00.337Z,3.40
2022-07-29T01:24:53.842Z,3.20
2022-07-29T01:27:40.752Z,3.40
2022-07-29T01:30:15.692Z,3.50
2022-07-29T01:32:55.021Z,3.40
2022-07-29T01:35:34.140Z,4.10
2022-07-29T01:38:14.777Z,3.40
2022-07-29T01:40:55.282Z,3.30
2022-07-29T01:43:36.685Z,3.50
2022-07-29T01:46:16.022Z,3.60
2022-07-29T01:48:54.472Z,3.60
2022-07-29T01:51:43.093Z,3.20
2022-07-29T01:54:21.943Z,3.70
2022-07-29T01:56:57.737Z,3.10
2022-07-29T01:59:35.889Z,3.60
2022-07-29T02:02:13.345Z,3.30
2022-07-29T02:04:49.593Z,3.60
2022-07-29T02:07:25.937Z,3.00
2022-07-29T02:09:59.340Z,2.80
2022-07-29T02:12:34.341Z,3.60
2022-07-29T02:15:10.882Z,4.00
2022-07-29T02:17:47.532Z,3.90
2022-07-29T02:20:20.279Z,3.00
2022-07-29T02:22:54.382Z,2.80
2022-07-29T02:25:37.059Z,3.10
2022-07-29T02:28:11.518Z,3.40
2022-07-29T02:30:46.375Z,3.10
2022-07-29T02:33:20.847Z,3.00
2022-07-29T02:35:54.431Z,3.00
2022-07-29T02:38:47.930Z,3.10
2022-07-29T02:41:25.106Z,3.30
2022-07-29T02:44:00.874Z,3.20
2022-07-29T02:46:36.781Z,3.30
2022-07-29T02:49:17.904Z,4.00
2022-07-29T02:51:55.238Z,3.20
2022-07-29T02:54:33.996Z,3.60
2022-07-29T02:57:17.016Z,4.30
2022-07-29T02:59:54.161Z,3.70
2022-07-29T03:02:29.206Z,3.40
2022-07-29T03:05:06.525Z,3.60
2022-07-29T03:07:41.000Z,3.10
2022-07-29T03:10:15.772Z,3.20
2022-07-29T03:12:48.874Z,3.10
2022-07-29T03:15:22.275Z,3.40
2022-07-29T03:17:57.949Z,2.90
2022-07-29T03:20:30.435Z,3.30
2022-07-29T03:23:04.136Z,3.20
2022-07-29T03:25:37.001Z,4.00
2022-07-29T03:28:09.777Z,2.80
2022-07-29T03:30:42.122Z,3.10
2022-07-29T03:33:17.450Z,3.30
2022-07-29T03:35:50.170Z,3.10
2022-07-29T03:38:26.269Z,2.90
2022-07-29T03:41:02.737Z,2.90
2022-07-29T03:43:38.764Z,3.30
2022-07-29T03:46:26.780Z,2.80
2022-07-29T03:49:02.200Z,3.40
2022-07-29T03:51:37.622Z,3.60
2022-07-29T03:54:10.795Z,3.10
2022-07-29T03:56:47.411Z,3.10
2022-07-29T03:59:20.900Z,2.80
2022-07-29T04:01:54.163Z,2.90
2022-07-29T04:04:27.321Z,2.90
2022-07-29T04:07:01.355Z,2.70
2022-07-29T04:09:33.686Z,2.80
2022-07-29T04:12:07.678Z,3.30
2022-07-29T04:14:40.233Z,3.10
2022-07-29T04:17:12.546Z,3.60
2022-07-29T04:19:44.694Z,3.00
2022-07-29T04:22:17.080Z,2.90
2022-07-29T04:24:49.334Z,3.00
2022-07-29T04:27:22.256Z,2.80
2022-07-29T04:29:56.843Z,3.20
2022-07-29T04:32:29.962Z,2.70
2022-07-29T04:35:02.932Z,2.60
2022-07-29T04:37:35.125Z,3.00
2022-07-29T04:40:09.310Z,3.30
2022-07-29T04:42:46.782Z,3.10
2022-07-29T04:45:22.496Z,3.00
2022-07-29T04:47:55.118Z,2.80
2022-07-29T04:50:28.274Z,3.10
2022-07-29T04:53:00.817Z,2.80
2022-07-29T04:55:33.134Z,2.80
2022-07-29T04:58:05.518Z,2.90
2022-07-29T05:00:37.956Z,3.30
2022-07-29T05:03:10.372Z,2.90
2022-07-29T05:05:43.310Z,2.80
2022-07-29T05:08:15.690Z,2.70
2022-07-29T05:10:48.060Z,2.70
2022-07-29T05:13:21.315Z,2.80
2022-07-29T05:15:53.741Z,3.30
2022-07-29T05:18:26.367Z,2.50
2022-07-29T05:20:58.930Z,2.70
2022-07-29T05:23:34.244Z,2.90
2022-07-29T05:26:06.540Z,2.70
2022-07-29T05:28:39.410Z,3.30
2022-07-29T05:31:11.724Z,2.80
2022-07-29T05:33:44.078Z,2.60
2022-07-29T05:36:19.488Z,2.10
2022-07-29T05:38:53.206Z,2.50
2022-07-29T05:41:26.027Z,2.20
2022-07-29T05:43:58.787Z,2.10
2022-07-29T05:46:31.600Z,1.90
2022-07-29T05:49:04.043Z,2.20
2022-07-29T05:51:36.935Z,1.90
2022-07-29T05:54:09.686Z,1.90
2022-07-29T05:56:41.796Z,1.50
2022-07-29T05:59:18.249Z,1.70
2022-07-29T06:01:50.655Z,1.80
2022-07-29T06:04:23.134Z,2.00
2022-07-29T06:06:55.552Z,2.20
2022-07-29T06:09:29.324Z,2.50
2022-07-29T06:12:01.790Z,2.20
2022-07-29T06:14:34.339Z,1.80
2022-07-29T06:17:06.913Z,2.00
2022-07-29T06:19:39.824Z,2.00
2022-07-29T06:22:11.981Z,2.60
2022-07-29T06:24:45.045Z,2.50
2022-07-29T06:27:17.492Z,1.70
2022-07-29T06:29:49.825Z,2.20
2022-07-29T06:32:22.909Z,1.40
2022-07-29T06:35:11.786Z,2.40
2022-07-29T06:37:48.894Z,2.00
2022-07-29T06:40:35.792Z,2.10
2022-07-29T06:43:09.826Z,1.90
2022-07-29T06:45:43.940Z,1.90
2022-07-29T09:09:17.615Z,2.60
2022-07-29T09:11:47.257Z,2.70
2022-07-29T09:14:16.417Z,2.90
2022-07-29T09:16:54.447Z,2.40
2022-07-29T09:19:28.739Z,2.60
2022-07-29T09:21:59.647Z,2.90
2022-07-29T09:24:39.221Z,3.10
2022-07-29T09:27:19.555Z,2.30
2022-07-29T09:32:18.017Z,4.70
2022-07-29T09:34:49.274Z,5.00
2022-07-29T09:37:28.699Z,3.70
2022-07-29T09:39:58.108Z,2.90
2022-07-29T09:42:33.280Z,3.10
2022-07-29T09:45:02.971Z,2.70
2022-07-29T09:47:46.122Z,2.50
2022-07-29T09:50:15.415Z,3.10
2022-07-29T09:52:49.306Z,3.30
2022-07-29T09:55:19.967Z,3.20
2022-07-29T09:57:48.979Z,3.20
2022-07-29T10:00:19.729Z,2.80
2022-07-29T10:02:49.728Z,3.30
2022-07-29T10:05:20.975Z,3.40
2022-07-29T10:07:54.200Z,3.00
2022-07-29T10:10:25.498Z,3.00
2022-07-29T10:12:58.018Z,2.90
2022-07-29T10:15:32.371Z,3.10
2022-07-29T10:18:01.536Z,2.80
2022-07-29T10:20:31.121Z,2.90
2022-07-29T10:23:00.410Z,3.60
2022-07-29T10:25:29.486Z,3.50
2022-07-29T10:27:58.969Z,3.20
2022-07-29T10:30:28.347Z,3.00
2022-07-29T10:33:19.127Z,2.70
2022-07-29T10:36:12.900Z,3.60
2022-07-29T10:38:53.586Z,3.50
2022-07-29T10:44:22.911Z,3.50
2022-07-29T10:46:56.827Z,3.30
2022-07-29T10:49:30.467Z,3.40
2022-07-29T10:52:05.858Z,3.50
2022-07-29T10:54:53.010Z,4.20
2022-07-29T10:57:52.571Z,3.60
2022-07-29T11:00:32.102Z,4.60
2022-07-29T11:03:04.386Z,3.40
2022-07-29T11:05:53.824Z,3.70
2022-07-29T11:08:27.726Z,4.20
2022-07-29T11:11:37.021Z,3.80
2022-07-29T11:14:10.193Z,4.00
2022-07-29T11:17:06.426Z,3.90
2022-07-29T11:19:40.172Z,4.20
2022-07-29T11:22:11.263Z,4.30
2022-07-29T11:24:50.155Z,4.40
2022-07-29T11:27:22.336Z,4.60
2022-07-29T11:29:56.325Z,4.40
2022-07-29T11:32:36.848Z,5.20
2022-07-29T11:35:18.984Z,3.30
2022-07-29T11:38:09.545Z,3.50
2022-07-29T11:40:40.218Z,3.60
2022-07-29T11:43:36.153Z,3.50
2022-07-29T11:46:10.151Z,4.10
2022-07-29T11:48:43.705Z,3.70
2022-07-29T11:51:15.325Z,3.40
2022-07-29T11:56:44.039Z,3.10
2022-07-29T11:59:15.125Z,3.20
2022-07-29T12:02:06.832Z,3.70
2022-07-29T12:04:51.536Z,3.60
2022-07-29T12:07:34.724Z,2.90
2022-07-29T12:10:06.288Z,4.00
2022-07-29T12:12:35.857Z,5.10
2022-07-29T12:15:18.053Z,6.90
2022-07-29T12:17:49.620Z,4.30
2022-07-29T12:20:25.346Z,3.70
2022-07-29T12:22:55.296Z,3.60
2022-07-29T12:25:33.750Z,3.20
2022-07-29T12:28:05.178Z,3.80
2022-07-29T12:30:40.253Z,3.90
2022-07-29T12:33:20.664Z,3.70
2022-07-29T12:36:06.142Z,3.70
2022-07-29T12:38:37.679Z,4.10
2022-07-29T12:41:06.698Z,3.70
2022-07-29T12:43:35.651Z,4.30
2022-07-29T12:46:15.276Z,3.80
2022-07-29T12:48:44.888Z,3.70
2022-07-29T12:51:15.242Z,4.60
2022-07-29T12:56:46.554Z,4.40
2022-07-29T12:59:19.436Z,4.00
2022-07-29T13:12:15.564Z,4.10
2022-07-29T13:14:46.071Z,4.40
2022-07-29T13:17:17.007Z,3.70
2022-07-29T13:19:47.600Z,4.00
2022-07-29T13:22:18.459Z,4.00
2022-07-29T13:24:52.718Z,5.00
2022-07-29T13:27:24.082Z,5.00
2022-07-29T13:29:53.617Z,5.10
2022-07-29T13:32:28.788Z,5.60
2022-07-29T13:34:59.663Z,5.00
2022-07-29T13:37:29.946Z,5.40
2022-07-29T13:42:27.426Z,5.20
2022-07-29T13:44:56.329Z,4.70
2022-07-29T13:47:32.834Z,5.40
2022-07-29T13:50:10.211Z,5.20
2022-07-29T13:52:39.147Z,5.30
2022-07-29T13:55:10.164Z,5.40
2022-07-29T13:57:39.171Z,4.90
2022-07-29T14:00:10.651Z,4.80
2022-07-29T14:02:39.462Z,4.70
2022-07-29T14:05:10.139Z,6.00
2022-07-29T14:07:39.500Z,5.80
2022-07-29T14:10:09.678Z,5.80
2022-07-29T14:12:38.630Z,5.60
2022-07-29T14:15:09.177Z,5.10
2022-07-29T14:17:37.998Z,5.30
2022-07-29T14:20:08.373Z,6.40
2022-07-29T14:22:42.345Z,5.80
2022-07-29T14:25:15.051Z,5.40
2022-07-29T14:27:44.647Z,5.20
2022-07-29T14:30:14.873Z,5.80
2022-07-29T14:32:43.646Z,7.10
2022-07-29T14:35:12.537Z,6.00
2022-07-29T14:37:42.119Z,5.70
2022-07-29T14:40:12.023Z,6.20
2022-07-29T14:42:41.033Z,6.40
2022-07-29T14:45:10.572Z,6.80
2022-07-29T14:47:40.109Z,5.70
2022-07-29T14:50:10.642Z,6.50
2022-07-29T14:52:39.800Z,5.90
2022-07-29T14:55:16.623Z,6.50
2022-07-29T15:00:18.080Z,6.30
2022-07-29T15:03:02.019Z,6.60
2022-07-29T15:05:32.511Z,7.10
2022-07-29T15:08:01.610Z,7.10
2022-07-29T15:10:30.785Z,6.80
2022-07-29T15:12:59.556Z,6.60
2022-07-29T15:15:29.464Z,6.00
2022-07-29T15:17:58.323Z,7.00
2022-07-29T15:20:27.479Z,6.30
2022-07-29T15:22:56.649Z,6.70
2022-07-29T15:25:26.406Z,6.90
2022-07-29T15:28:01.271Z,7.10
2022-07-29T15:30:33.317Z,6.90
2022-07-29T15:33:04.226Z,6.80
2022-07-29T15:35:40.559Z,6.50
2022-07-29T15:38:09.858Z,6.00
2022-07-29T15:40:40.681Z,5.80
2022-07-29T15:43:09.540Z,5.90
2022-07-29T15:45:40.513Z,6.00
2022-07-29T15:48:14.568Z,6.10
2022-07-29T15:50:43.804Z,6.30
2022-07-29T15:53:16.071Z,6.00
2022-07-29T15:55:44.882Z,6.40
2022-07-29T15:58:16.972Z,6.90
2022-07-29T16:00:45.896Z,6.40
2022-07-29T16:03:15.617Z,6.70
2022-07-29T16:05:44.814Z,6.60
2022-07-29T16:08:13.636Z,6.40
2022-07-29T16:10:42.546Z,6.60
2022-07-29T16:13:11.280Z,6.90
2022-07-29T16:16:02.641Z,6.70
2022-07-29T16:18:32.652Z,7.00
2022-07-29T16:21:01.371Z,7.30
2022-07-29T16:23:30.165Z,7.70
2022-07-29T16:26:00.561Z,7.60
2022-07-29T16:28:30.840Z,7.80
2022-07-29T16:31:00.116Z,7.70
2022-07-29T16:33:29.017Z,7.60
2022-07-29T16:36:18.475Z,7.40
2022-07-29T16:38:48.069Z,7.40
2022-07-29T16:41:16.794Z,7.70
2022-07-29T16:43:45.761Z,7.90
2022-07-29T16:46:15.611Z,7.40
2022-07-29T16:48:49.031Z,7.60
2022-07-29T16:51:17.883Z,7.60
2022-07-29T16:53:50.344Z,7.60
2022-07-29T16:56:19.347Z,7.70
2022-07-29T16:58:48.222Z,7.10
2022-07-29T17:01:17.582Z,6.30
2022-07-29T17:04:04.862Z,6.20
2022-07-29T17:06:35.309Z,6.80
2022-07-29T17:09:06.397Z,6.80
2022-07-29T17:11:53.568Z,8.20
2022-07-29T17:14:25.263Z,7.10
2022-07-29T17:17:01.177Z,7.30
2022-07-29T17:19:31.989Z,7.60
2022-07-29T17:22:10.498Z,7.80
2022-07-29T17:24:41.977Z,7.40
2022-07-29T17:27:11.205Z,6.80
2022-07-29T17:29:40.285Z,7.40
2022-07-29T17:32:10.194Z,7.80
2022-07-29T17:34:41.071Z,7.30
2022-07-29T17:37:11.451Z,7.30
2022-07-29T17:39:42.050Z,7.60
2022-07-29T17:42:13.304Z,7.50
2022-07-29T17:44:42.490Z,7.40
2022-07-29T17:47:16.516Z,7.60
2022-07-29T17:49:46.657Z,7.20
2022-07-29T17:52:17.740Z,7.20
2022-07-29T17:54:48.595Z,8.70
2022-07-29T17:57:17.492Z,8.80
2022-07-29T17:59:46.283Z,9.70
2022-07-29T18:02:15.216Z,10.70
2022-07-29T18:04:44.136Z,14.30
2022-07-29T18:07:13.059Z,12.40
2022-07-29T18:09:41.931Z,12.20
2022-07-29T18:12:11.537Z,17.20
2022-07-29T18:14:40.579Z,13.30
2022-07-29T18:17:09.472Z,13.60
2022-07-29T18:19:38.297Z,11.70
2022-07-29T18:22:09.810Z,10.20
2022-07-29T18:24:39.109Z,10.90
2022-07-29T18:27:08.080Z,11.70
2022-07-29T18:29:37.194Z,10.50
2022-07-29T18:32:07.396Z,11.30
2022-07-29T18:34:36.592Z,11.50
2022-07-29T18:37:05.434Z,10.00
2022-07-29T18:39:35.478Z,9.80
2022-07-29T18:42:07.704Z,9.60
2022-07-29T18:44:43.595Z,9.60
2022-07-29T18:47:17.960Z,9.00
2022-07-29T18:49:46.994Z,9.20
2022-07-29T18:52:16.052Z,8.90
2022-07-29T18:54:45.234Z,8.50
2022-07-29T18:57:54.745Z,8.20
2022-07-29T19:00:10.377Z,8.90
2022-07-29T19:02:44.678Z,8.50
2022-07-29T19:05:16.759Z,9.10
2022-07-29T19:07:45.632Z,8.40
2022-07-29T19:10:14.822Z,8.90
2022-07-29T19:12:43.740Z,8.70
2022-07-29T19:15:12.849Z,8.30
2022-07-29T19:17:49.546Z,8.20
2022-07-29T19:20:18.417Z,8.60
2022-07-29T19:22:47.254Z,8.70
2022-07-29T19:25:16.380Z,8.70
2022-07-29T19:27:46.179Z,7.90
2022-07-29T19:30:15.401Z,9.50
2022-07-29T19:32:44.674Z,8.30
2022-07-29T19:35:31.012Z,7.30
2022-07-29T19:38:02.351Z,8.00
2022-07-29T19:40:32.570Z,8.10
2022-07-29T19:43:02.915Z,8.90
2022-07-29T19:45:52.303Z,8.60
2022-07-29T19:48:24.007Z,9.00
2022-07-29T19:50:54.954Z,8.80
2022-07-29T19:53:23.781Z,8.50
2022-07-29T19:55:53.124Z,9.60
2022-07-29T19:58:22.494Z,9.30
2022-07-29T20:00:57.804Z,9.00
2022-07-29T20:03:27.160Z,8.30
2022-07-29T20:05:55.988Z,8.80
2022-07-29T20:08:24.808Z,9.10
2022-07-29T20:10:55.446Z,9.00
2022-07-29T20:13:24.347Z,8.10
2022-07-29T20:15:53.294Z,8.50
2022-07-29T20:18:22.182Z,8.20
2022-07-29T20:20:55.554Z,7.80
2022-07-29T20:23:33.232Z,9.10
2022-07-29T20:26:08.719Z,8.40
2022-07-29T20:28:39.869Z,8.10
2022-07-29T20:31:15.139Z,9.10
2022-07-29T20:33:48.976Z,8.40
2022-07-29T20:36:23.233Z,8.90
2022-07-29T20:39:02.230Z,7.90
2022-07-29T20:41:51.814Z,8.00
2022-07-29T20:44:25.656Z,8.70
2022-07-29T20:47:00.687Z,9.30
2022-07-29T20:49:36.941Z,8.40
2022-07-29T20:52:09.526Z,8.90
2022-07-29T20:54:39.699Z,8.40
2022-07-29T20:57:08.536Z,8.70
2022-07-29T20:59:37.413Z,8.90
2022-07-29T21:02:06.308Z,9.70
2022-07-29T21:04:38.205Z,9.40
2022-07-29T21:07:06.972Z,8.70
2022-07-29T21:09:35.745Z,8.90
2022-07-29T21:12:05.725Z,9.20
2022-07-29T21:14:47.431Z,8.50
2022-07-29T21:17:18.889Z,9.90
2022-07-29T21:19:51.835Z,9.10
2022-07-29T21:22:23.438Z,9.40
2022-07-29T21:24:52.199Z,9.90
2022-07-29T21:27:39.162Z,9.10
2022-07-29T21:30:10.281Z,9.20
2022-07-29T21:32:39.151Z,8.70
2022-07-29T21:35:18.197Z,9.00
2022-07-29T21:38:01.036Z,8.80
2022-07-29T21:40:30.182Z,9.40
2022-07-29T21:42:59.052Z,9.30
2022-07-29T21:45:29.674Z,9.80
2022-07-29T21:47:58.456Z,9.30
2022-07-29T21:50:27.263Z,8.90
2022-07-29T21:52:56.093Z,9.10
2022-07-29T21:55:25.970Z,9.30
2022-07-29T21:57:56.734Z,8.40
2022-07-29T22:00:25.957Z,9.00
2022-07-29T22:02:57.330Z,8.70
2022-07-29T22:05:26.193Z,8.70
2022-07-29T22:07:57.030Z,8.70
2022-07-29T22:10:27.145Z,9.50
2022-07-29T22:12:57.722Z,9.30
2022-07-29T22:15:27.209Z,9.20
2022-07-29T22:17:56.063Z,9.20
2022-07-29T22:20:25.239Z,8.80
2022-07-29T22:22:54.191Z,8.90
2022-07-29T22:25:22.959Z,9.20
2022-07-29T22:27:51.678Z,8.80
2022-07-29T22:30:20.660Z,9.70
2022-07-29T22:32:49.467Z,10.00
2022-07-29T22:35:18.330Z,9.10
2022-07-29T22:37:47.125Z,10.00
2022-07-29T22:40:15.865Z,9.70
2022-07-29T22:42:44.701Z,9.00
2022-07-29T22:45:13.417Z,9.40
2022-07-29T22:47:48.028Z,8.30
2022-07-29T22:50:17.812Z,9.00
2022-07-29T22:52:46.838Z,8.60
2022-07-29T22:55:15.848Z,10.00
2022-07-29T22:57:44.594Z,9.30
2022-07-29T23:00:15.602Z,9.20
2022-07-29T23:02:44.320Z,9.00
2022-07-29T23:05:16.547Z,8.30
2022-07-29T23:07:48.413Z,9.20
2022-07-29T23:10:17.232Z,8.90
2022-07-29T23:12:46.170Z,9.30
2022-07-29T23:15:15.044Z,9.30
2022-07-29T23:17:44.111Z,9.20
2022-07-29T23:20:14.969Z,9.30
2022-07-29T23:22:43.843Z,9.60
2022-07-29T23:25:12.708Z,9.90
2022-07-29T23:27:41.816Z,9.60
2022-07-29T23:30:11.996Z,9.30
2022-07-29T23:32:40.917Z,10.50
2022-07-29T23:35:10.740Z,8.80
2022-07-29T23:40:14.253Z,9.00
2022-07-29T23:42:44.082Z,8.60
2022-07-29T23:45:13.711Z,8.10
2022-07-29T23:47:45.593Z,8.70
2022-07-29T23:50:16.191Z,9.50
2022-07-29T23:52:45.161Z,8.30
2022-07-29T23:55:38.180Z,9.20
2022-07-29T23:58:03.663Z,8.70
